createdAt,value
2023-01-08T00:00:02.767Z,14.55
2023-01-08T00:00:13.734Z,14.55
2023-01-08T00:00:24.773Z,14.54
2023-01-08T00:00:35.853Z,14.55
2023-01-08T00:00:46.822Z,14.54
2023-01-08T00:00:58.797Z,14.54
2023-01-08T00:01:09.788Z,14.55
2023-01-08T00:01:21.730Z,14.55
2023-01-08T00:01:32.729Z,14.53
2023-01-08T00:01:43.802Z,14.54
2023-01-08T00:01:54.775Z,14.53
2023-01-08T00:02:06.737Z,14.53
2023-01-08T00:02:17.741Z,14.53
2023-01-08T00:02:28.758Z,14.55
2023-01-08T00:02:39.806Z,14.53
2023-01-08T00:02:51.883Z,14.54
2023-01-08T00:03:03.854Z,14.53
2023-01-08T00:03:15.884Z,14.54
2023-01-08T00:03:26.849Z,14.54
2023-01-08T00:03:37.840Z,14.55
2023-01-08T00:03:48.911Z,14.53
2023-01-08T00:03:59.849Z,14.54
2023-01-08T00:04:10.848Z,14.55
2023-01-08T00:04:21.757Z,14.54
2023-01-08T00:04:32.762Z,14.53
2023-01-08T00:04:43.765Z,14.54
2023-01-08T00:04:54.767Z,14.53
2023-01-08T00:05:06.751Z,14.54
2023-01-08T00:05:17.810Z,14.55
2023-01-08T00:05:29.733Z,14.54
2023-01-08T00:05:40.708Z,14.54
2023-01-08T00:05:51.740Z,14.54
2023-01-08T00:06:02.735Z,14.54
2023-01-08T00:06:13.724Z,14.54
2023-01-08T00:06:24.785Z,14.55
2023-01-08T00:06:35.809Z,14.56
2023-01-08T00:06:47.745Z,14.55
2023-01-08T00:06:58.728Z,14.55
2023-01-08T00:07:09.746Z,14.56
2023-01-08T00:07:20.736Z,14.56
2023-01-08T00:07:31.792Z,14.55
2023-01-08T00:07:42.785Z,14.56
2023-01-08T00:07:54.741Z,14.55
2023-01-08T00:08:05.753Z,14.56
2023-01-08T00:08:16.752Z,14.55
2023-01-08T00:08:27.799Z,14.55
2023-01-08T00:08:38.784Z,14.55
2023-01-08T00:08:49.773Z,14.55
2023-01-08T00:09:01.764Z,14.56
2023-01-08T00:09:12.726Z,14.57
2023-01-08T00:09:23.789Z,14.56
2023-01-08T00:09:34.752Z,14.56
2023-01-08T00:09:45.758Z,14.56
2023-01-08T00:09:56.745Z,14.55
2023-01-08T00:10:07.734Z,14.56
2023-01-08T00:10:18.866Z,14.56
2023-01-08T00:10:30.794Z,14.55
2023-01-08T00:10:42.760Z,14.56
2023-01-08T00:10:53.751Z,14.55
2023-01-08T00:11:04.748Z,14.56
2023-01-08T00:11:15.797Z,14.57
2023-01-08T00:11:26.777Z,14.55
2023-01-08T00:11:37.776Z,14.55
2023-01-08T00:11:48.779Z,14.56
2023-01-08T00:11:59.766Z,14.57
2023-01-08T00:12:10.811Z,14.55
2023-01-08T00:12:21.766Z,14.55
2023-01-08T00:12:33.749Z,14.55
2023-01-08T00:12:44.723Z,14.57
2023-01-08T00:12:55.812Z,14.55
2023-01-08T00:13:07.779Z,14.56
2023-01-08T00:13:18.812Z,14.57
2023-01-08T00:13:29.782Z,14.56
2023-01-08T00:13:40.761Z,14.57
2023-01-08T00:13:51.756Z,14.57
2023-01-08T00:14:02.757Z,14.56
2023-01-08T00:14:13.787Z,14.58
2023-01-08T00:14:24.808Z,14.57
2023-01-08T00:14:36.773Z,14.55
2023-01-08T00:14:47.746Z,14.57
2023-01-08T00:14:58.776Z,14.57
2023-01-08T00:15:09.797Z,14.57
2023-01-08T00:15:20.764Z,14.56
2023-01-08T00:15:31.748Z,14.57
2023-01-08T00:15:42.732Z,14.55
2023-01-08T00:15:53.724Z,14.56
2023-01-08T00:16:04.851Z,14.55
2023-01-08T00:16:15.871Z,14.54
2023-01-08T00:16:26.811Z,14.55
2023-01-08T00:16:38.818Z,14.56
2023-01-08T00:16:49.782Z,14.54
2023-01-08T00:17:01.781Z,14.55
2023-01-08T00:17:12.821Z,14.56
2023-01-08T00:17:24.761Z,14.55
2023-01-08T00:17:35.768Z,14.57
2023-01-08T00:17:46.735Z,14.56
2023-01-08T00:17:57.730Z,14.55
2023-01-08T00:18:08.803Z,14.56
2023-01-08T00:18:20.852Z,14.57
2023-01-08T00:18:32.789Z,14.56
2023-01-08T00:18:43.768Z,14.56
2023-01-08T00:18:54.759Z,14.56
2023-01-08T00:19:05.757Z,14.56
2023-01-08T00:19:16.768Z,14.56
2023-01-08T00:19:28.751Z,14.55
2023-01-08T00:19:40.789Z,14.57
2023-01-08T00:19:51.755Z,14.56
2023-01-08T00:20:02.747Z,14.57
2023-01-08T00:20:13.729Z,14.56
2023-01-08T00:20:24.743Z,14.56
2023-01-08T00:20:35.758Z,14.57
2023-01-08T00:20:46.822Z,14.57
2023-01-08T00:20:58.774Z,14.56
2023-01-08T00:21:09.763Z,14.56
2023-01-08T00:21:20.776Z,14.56
2023-01-08T00:21:32.762Z,14.57
2023-01-08T00:21:43.737Z,14.57
2023-01-08T00:21:54.801Z,14.56
2023-01-08T00:22:05.782Z,14.56
2023-01-08T00:22:17.738Z,14.56
2023-01-08T00:22:28.808Z,14.56
2023-01-08T00:22:40.773Z,14.56
2023-01-08T00:22:52.750Z,14.58
2023-01-08T00:23:03.794Z,14.58
2023-01-08T00:23:14.767Z,14.58
2023-01-08T00:23:25.746Z,14.57
2023-01-08T00:23:36.778Z,14.58
2023-01-08T00:23:47.762Z,14.57
2023-01-08T00:23:58.785Z,14.57
2023-01-08T00:24:09.756Z,14.58
2023-01-08T00:24:20.755Z,14.58
2023-01-08T00:24:31.740Z,14.58
2023-01-08T00:24:42.760Z,14.57
2023-01-08T00:24:53.739Z,14.57
2023-01-08T00:25:04.792Z,14.57
2023-01-08T00:25:16.747Z,14.57
2023-01-08T00:25:27.748Z,14.58
2023-01-08T00:25:38.859Z,14.58
2023-01-08T00:25:49.732Z,14.58
2023-01-08T00:26:00.730Z,14.59
2023-01-08T00:26:11.785Z,14.58
2023-01-08T00:26:22.756Z,14.58
2023-01-08T00:26:33.759Z,14.58
2023-01-08T00:26:44.746Z,14.59
2023-01-08T00:26:55.783Z,14.58
2023-01-08T00:27:06.824Z,14.58
2023-01-08T00:27:17.781Z,14.59
2023-01-08T00:27:28.761Z,14.58
2023-01-08T00:27:39.740Z,14.59
2023-01-08T00:27:50.738Z,14.58
2023-01-08T00:28:01.712Z,14.58
2023-01-08T00:28:12.834Z,14.58
2023-01-08T00:28:23.798Z,14.58
2023-01-08T00:28:35.741Z,14.59
2023-01-08T00:28:46.759Z,14.59
2023-01-08T00:28:57.752Z,14.60
2023-01-08T00:29:08.747Z,14.57
2023-01-08T00:29:19.781Z,14.57
2023-01-08T00:29:30.743Z,14.58
2023-01-08T00:29:41.723Z,14.58
2023-01-08T00:29:52.720Z,14.58
2023-01-08T00:30:03.796Z,14.57
2023-01-08T00:30:15.746Z,14.59
2023-01-08T00:30:26.820Z,14.59
2023-01-08T00:30:38.793Z,14.58
2023-01-08T00:30:49.754Z,14.58
2023-01-08T00:31:03.346Z,14.58
2023-01-08T00:31:11.787Z,14.58
2023-01-08T00:31:22.871Z,14.59
2023-01-08T00:31:33.829Z,14.59
2023-01-08T00:31:45.782Z,14.58
2023-01-08T00:31:56.761Z,14.59
2023-01-08T00:32:07.751Z,14.59
2023-01-08T00:32:18.737Z,14.58
2023-01-08T00:32:29.816Z,14.58
2023-01-08T00:32:41.810Z,14.60
2023-01-08T00:32:52.789Z,14.58
2023-01-08T00:33:04.742Z,14.58
2023-01-08T00:33:15.738Z,14.59
2023-01-08T00:33:26.804Z,14.59
2023-01-08T00:33:38.797Z,14.59
2023-01-08T00:33:49.820Z,14.59
2023-01-08T00:34:01.753Z,14.59
2023-01-08T00:34:12.775Z,14.59
2023-01-08T00:34:23.779Z,14.57
2023-01-08T00:34:35.738Z,14.59
2023-01-08T00:34:46.739Z,14.58
2023-01-08T00:34:57.837Z,14.58
2023-01-08T00:35:09.756Z,14.58
2023-01-08T00:35:20.725Z,14.58
2023-01-08T00:35:31.820Z,14.59
2023-01-08T00:35:43.784Z,14.59
2023-01-08T00:35:55.794Z,14.59
2023-01-08T00:36:07.801Z,14.59
2023-01-08T00:36:18.772Z,14.60
2023-01-08T00:36:29.762Z,14.59
2023-01-08T00:36:41.736Z,14.60
2023-01-08T00:36:52.760Z,14.60
2023-01-08T00:37:03.772Z,14.59
2023-01-08T00:37:14.806Z,14.60
2023-01-08T00:37:26.769Z,14.60
2023-01-08T00:37:38.733Z,14.58
2023-01-08T00:37:49.721Z,14.59
2023-01-08T00:38:00.783Z,14.60
2023-01-08T00:38:12.764Z,14.59
2023-01-08T00:38:23.728Z,14.59
2023-01-08T00:38:34.765Z,14.59
2023-01-08T00:38:45.736Z,14.59
2023-01-08T00:38:56.719Z,14.59
2023-01-08T00:39:07.733Z,14.60
2023-01-08T00:39:18.805Z,14.59
2023-01-08T00:39:30.756Z,14.60
2023-01-08T00:39:41.815Z,14.59
2023-01-08T00:39:52.775Z,14.58
2023-01-08T00:40:03.760Z,14.58
2023-01-08T00:40:14.778Z,14.59
2023-01-08T00:40:25.831Z,14.59
2023-01-08T00:40:37.756Z,14.58
2023-01-08T00:40:48.798Z,14.59
2023-01-08T00:40:59.762Z,14.60
2023-01-08T00:41:10.787Z,14.60
2023-01-08T00:41:22.740Z,14.60
2023-01-08T00:41:33.737Z,14.60
2023-01-08T00:41:44.807Z,14.59
2023-01-08T00:41:56.901Z,14.59
2023-01-08T00:42:07.777Z,14.60
2023-01-08T00:42:18.784Z,14.59
2023-01-08T00:42:30.757Z,14.59
2023-01-08T00:42:41.766Z,14.59
2023-01-08T00:42:53.729Z,14.59
2023-01-08T00:43:04.800Z,14.60
2023-01-08T00:43:15.771Z,14.59
2023-01-08T00:43:26.744Z,14.60
2023-01-08T00:43:37.749Z,14.60
2023-01-08T00:43:48.734Z,14.59
2023-01-08T00:43:59.716Z,14.59
2023-01-08T00:44:10.839Z,14.60
2023-01-08T00:44:22.769Z,14.58
2023-01-08T00:44:33.743Z,14.59
2023-01-08T00:44:44.719Z,14.60
2023-01-08T00:44:55.804Z,14.60
2023-01-08T00:45:07.757Z,14.60
2023-01-08T00:45:18.822Z,14.59
2023-01-08T00:45:30.798Z,14.60
2023-01-08T00:45:41.766Z,14.60
2023-01-08T00:45:52.835Z,14.59
2023-01-08T00:46:04.890Z,14.59
2023-01-08T00:46:16.850Z,14.59
2023-01-08T00:46:27.725Z,14.60
2023-01-08T00:46:38.770Z,14.60
2023-01-08T00:46:49.747Z,14.59
2023-01-08T00:47:00.712Z,14.60
2023-01-08T00:47:11.754Z,14.60
2023-01-08T00:47:22.740Z,14.61
2023-01-08T00:47:33.757Z,14.61
2023-01-08T00:47:44.744Z,14.60
2023-01-08T00:47:55.840Z,14.61
2023-01-08T00:48:07.802Z,14.60
2023-01-08T00:48:19.724Z,14.59
2023-01-08T00:48:30.753Z,14.58
2023-01-08T00:48:41.767Z,14.60
2023-01-08T00:48:52.769Z,14.60
2023-01-08T00:49:03.752Z,14.59
2023-01-08T00:49:14.767Z,14.59
2023-01-08T00:49:25.753Z,14.59
2023-01-08T00:49:36.751Z,14.60
2023-01-08T00:49:47.757Z,14.60
2023-01-08T00:49:58.731Z,14.60
2023-01-08T00:50:09.728Z,14.60
2023-01-08T00:50:20.741Z,14.61
2023-01-08T00:50:31.736Z,14.60
2023-01-08T00:50:42.731Z,14.61
2023-01-08T00:50:53.749Z,14.62
2023-01-08T00:51:04.751Z,14.61
2023-01-08T00:51:16.142Z,14.61
2023-01-08T00:51:27.799Z,14.61
2023-01-08T00:51:39.764Z,14.60
2023-01-08T00:51:50.757Z,14.60
2023-01-08T00:52:01.750Z,14.63
2023-01-08T00:52:12.762Z,14.61
2023-01-08T00:52:23.758Z,14.61
2023-01-08T00:52:34.741Z,14.62
2023-01-08T00:52:46.396Z,14.61
2023-01-08T00:52:56.728Z,14.61
2023-01-08T00:53:07.739Z,14.62
2023-01-08T00:53:18.705Z,14.61
2023-01-08T00:53:29.810Z,14.62
2023-01-08T00:53:41.769Z,14.61
2023-01-08T00:53:52.760Z,14.61
2023-01-08T00:54:03.744Z,14.62
2023-01-08T00:54:14.718Z,14.61
2023-01-08T00:54:25.739Z,14.61
2023-01-08T00:54:36.756Z,14.61
2023-01-08T00:54:47.729Z,14.61
2023-01-08T00:54:58.744Z,14.60
2023-01-08T00:55:09.754Z,14.60
2023-01-08T00:55:20.751Z,14.60
2023-01-08T00:55:32.738Z,14.60
2023-01-08T00:55:43.757Z,14.61
2023-01-08T00:55:54.945Z,14.62
2023-01-08T00:56:05.717Z,14.61
2023-01-08T00:56:16.824Z,14.60
2023-01-08T00:56:28.837Z,14.60
2023-01-08T00:56:40.805Z,14.61
2023-01-08T00:56:52.750Z,14.61
2023-01-08T00:57:03.742Z,14.61
2023-01-08T00:57:14.758Z,14.61
2023-01-08T00:57:25.747Z,14.61
2023-01-08T00:57:36.777Z,14.62
2023-01-08T00:57:48.758Z,14.62
2023-01-08T00:57:59.754Z,14.63
2023-01-08T00:58:10.725Z,14.61
2023-01-08T00:58:21.826Z,14.61
2023-01-08T00:58:33.784Z,14.62
2023-01-08T00:58:45.769Z,14.62
2023-01-08T00:58:56.754Z,14.61
2023-01-08T00:59:07.769Z,14.62
2023-01-08T00:59:19.741Z,14.63
2023-01-08T00:59:30.711Z,14.63
2023-01-08T00:59:41.705Z,14.62
2023-01-08T00:59:52.825Z,14.63
2023-01-08T01:00:04.765Z,14.62
2023-01-08T01:00:15.753Z,14.63
2023-01-08T01:00:26.759Z,14.63
2023-01-08T01:00:37.754Z,14.62
2023-01-08T01:00:48.807Z,14.62
2023-01-08T01:01:00.865Z,14.62
2023-01-08T01:01:11.985Z,14.63
2023-01-08T01:01:23.923Z,14.63
2023-01-08T01:01:34.979Z,14.62
2023-01-08T01:01:46.958Z,14.63
2023-01-08T01:01:58.931Z,14.63
2023-01-08T01:02:10.987Z,14.62
2023-01-08T01:02:22.866Z,14.63
2023-01-08T01:02:34.735Z,14.63
2023-01-08T01:02:45.753Z,14.63
2023-01-08T01:02:56.740Z,14.63
2023-01-08T01:03:07.724Z,14.63
2023-01-08T01:03:18.797Z,14.62
2023-01-08T01:03:30.752Z,14.63
2023-01-08T01:03:41.751Z,14.62
2023-01-08T01:03:52.820Z,14.61
2023-01-08T01:04:04.779Z,14.63
2023-01-08T01:04:15.841Z,14.62
2023-01-08T01:04:26.800Z,14.62
2023-01-08T01:04:37.860Z,14.62
2023-01-08T01:04:49.715Z,14.64
2023-01-08T01:05:00.801Z,14.63
2023-01-08T01:05:12.749Z,14.63
2023-01-08T01:05:23.731Z,14.64
2023-01-08T01:05:34.793Z,14.63
2023-01-08T01:05:46.759Z,14.63
2023-01-08T01:05:57.767Z,14.63
2023-01-08T01:06:08.742Z,14.62
2023-01-08T01:06:19.729Z,14.62
2023-01-08T01:06:30.749Z,14.63
2023-01-08T01:06:41.719Z,14.61
2023-01-08T01:06:52.806Z,14.61
2023-01-08T01:07:04.762Z,14.63
2023-01-08T01:07:16.739Z,14.63
2023-01-08T01:07:27.751Z,14.63
2023-01-08T01:07:38.769Z,14.63
2023-01-08T01:07:50.735Z,14.63
2023-01-08T01:08:01.815Z,14.63
2023-01-08T01:08:13.768Z,14.62
2023-01-08T01:08:24.761Z,14.62
2023-01-08T01:08:36.743Z,14.63
2023-01-08T01:08:47.747Z,14.62
2023-01-08T01:08:58.732Z,14.63
2023-01-08T01:09:09.750Z,14.64
2023-01-08T01:09:20.766Z,14.63
2023-01-08T01:09:31.769Z,14.62
2023-01-08T01:09:43.740Z,14.62
2023-01-08T01:09:54.804Z,14.63
2023-01-08T01:10:06.760Z,14.62
2023-01-08T01:10:18.729Z,14.64
2023-01-08T01:10:29.745Z,14.63
2023-01-08T01:10:40.747Z,14.63
2023-01-08T01:10:51.746Z,14.64
2023-01-08T01:11:02.838Z,14.64
2023-01-08T01:11:14.762Z,14.62
2023-01-08T01:11:25.753Z,14.63
2023-01-08T01:11:36.752Z,14.65
2023-01-08T01:11:47.759Z,14.64
2023-01-08T01:11:58.731Z,14.62
2023-01-08T01:12:09.717Z,14.63
2023-01-08T01:12:20.731Z,14.62
2023-01-08T01:12:31.760Z,14.62
2023-01-08T01:12:42.785Z,14.63
2023-01-08T01:12:53.770Z,14.63
2023-01-08T01:13:04.726Z,14.63
2023-01-08T01:13:15.823Z,14.63
2023-01-08T01:13:27.777Z,14.62
2023-01-08T01:13:39.730Z,14.63
2023-01-08T01:13:50.746Z,14.64
2023-01-08T01:14:01.715Z,14.62
2023-01-08T01:14:12.741Z,14.63
2023-01-08T01:14:23.732Z,14.63
2023-01-08T01:14:34.711Z,14.62
2023-01-08T01:14:45.835Z,14.63
2023-01-08T01:14:57.789Z,14.63
2023-01-08T01:15:09.728Z,14.62
2023-01-08T01:15:20.745Z,14.64
2023-01-08T01:15:31.727Z,14.63
2023-01-08T01:15:42.710Z,14.63
2023-01-08T01:15:53.725Z,14.65
2023-01-08T01:16:04.740Z,14.63
2023-01-08T01:16:15.785Z,14.64
2023-01-08T01:16:26.779Z,14.64
2023-01-08T01:16:37.839Z,14.65
2023-01-08T01:16:49.819Z,14.64
2023-01-08T01:17:01.830Z,14.64
2023-01-08T01:17:12.719Z,14.64
2023-01-08T01:17:23.760Z,14.64
2023-01-08T01:17:34.763Z,14.65
2023-01-08T01:17:45.762Z,14.65
2023-01-08T01:17:56.735Z,14.66
2023-01-08T01:18:07.763Z,14.65
2023-01-08T01:18:18.724Z,14.64
2023-01-08T01:18:29.729Z,14.66
2023-01-08T01:18:40.709Z,14.66
2023-01-08T01:18:51.719Z,14.65
2023-01-08T01:19:02.797Z,14.64
2023-01-08T01:19:14.760Z,14.65
2023-01-08T01:19:25.745Z,14.65
2023-01-08T01:19:36.789Z,14.64
2023-01-08T01:19:47.759Z,14.64
2023-01-08T01:19:58.737Z,14.66
2023-01-08T01:20:09.727Z,14.64
2023-01-08T01:20:20.722Z,14.65
2023-01-08T01:20:31.743Z,14.65
2023-01-08T01:20:42.758Z,14.63
2023-01-08T01:20:53.769Z,14.64
2023-01-08T01:21:04.756Z,14.63
2023-01-08T01:21:15.753Z,14.63
2023-01-08T01:21:26.743Z,14.63
2023-01-08T01:21:37.759Z,14.64
2023-01-08T01:21:48.755Z,14.64
2023-01-08T01:21:59.742Z,14.64
2023-01-08T01:22:10.744Z,14.64
2023-01-08T01:22:21.751Z,14.64
2023-01-08T01:22:32.738Z,14.64
2023-01-08T01:22:43.705Z,14.63
2023-01-08T01:22:54.734Z,14.63
2023-01-08T01:23:05.753Z,14.63
2023-01-08T01:23:16.759Z,14.62
2023-01-08T01:23:27.742Z,14.63
2023-01-08T01:23:38.735Z,14.65
2023-01-08T01:23:49.725Z,14.62
2023-01-08T01:24:00.760Z,14.63
2023-01-08T01:24:11.744Z,14.62
2023-01-08T01:24:22.720Z,14.63
2023-01-08T01:24:33.750Z,14.62
2023-01-08T01:24:44.747Z,14.63
2023-01-08T01:24:55.764Z,14.62
2023-01-08T01:25:06.767Z,14.63
2023-01-08T01:25:17.762Z,14.63
2023-01-08T01:25:28.770Z,14.63
2023-01-08T01:25:40.734Z,14.63
2023-01-08T01:25:51.725Z,14.63
2023-01-08T01:26:02.781Z,14.63
2023-01-08T01:26:14.848Z,14.64
2023-01-08T01:26:26.782Z,14.64
2023-01-08T01:26:38.760Z,14.65
2023-01-08T01:26:49.771Z,14.64
2023-01-08T01:27:01.728Z,14.64
2023-01-08T01:27:12.794Z,14.64
2023-01-08T01:27:24.739Z,14.64
2023-01-08T01:27:35.766Z,14.63
2023-01-08T01:27:46.753Z,14.62
2023-01-08T01:27:57.779Z,14.63
2023-01-08T01:28:08.747Z,14.62
2023-01-08T01:28:19.738Z,14.62
2023-01-08T01:28:30.705Z,14.64
2023-01-08T01:28:41.797Z,14.64
2023-01-08T01:28:53.741Z,14.62
2023-01-08T01:29:04.753Z,14.63
2023-01-08T01:29:15.732Z,14.64
2023-01-08T01:29:26.717Z,14.63
2023-01-08T01:29:37.717Z,14.64
2023-01-08T01:29:48.727Z,14.64
2023-01-08T01:29:59.775Z,14.64
2023-01-08T01:30:10.743Z,14.63
2023-01-08T01:30:21.736Z,14.64
2023-01-08T01:30:32.778Z,14.65
2023-01-08T01:30:43.775Z,14.63
2023-01-08T01:30:54.864Z,14.64
2023-01-08T01:31:05.820Z,14.64
2023-01-08T01:31:17.845Z,14.65
2023-01-08T01:31:28.751Z,14.65
2023-01-08T01:31:39.767Z,14.63
2023-01-08T01:31:50.746Z,14.64
2023-01-08T01:32:01.777Z,14.65
2023-01-08T01:32:13.743Z,14.65
2023-01-08T01:32:24.732Z,14.64
2023-01-08T01:32:35.732Z,14.65
2023-01-08T01:32:46.707Z,14.64
2023-01-08T01:32:57.790Z,14.63
2023-01-08T01:33:09.731Z,14.64
2023-01-08T01:33:20.729Z,14.64
2023-01-08T01:33:31.723Z,14.64
2023-01-08T01:33:42.711Z,14.66
2023-01-08T01:33:53.728Z,14.64
2023-01-08T01:34:04.736Z,14.65
2023-01-08T01:34:15.755Z,14.65
2023-01-08T01:34:26.737Z,14.64
2023-01-08T01:34:37.775Z,14.64
2023-01-08T01:34:48.749Z,14.65
2023-01-08T01:34:59.737Z,14.66
2023-01-08T01:35:10.719Z,14.64
2023-01-08T01:35:21.731Z,14.65
2023-01-08T01:35:32.735Z,14.65
2023-01-08T01:35:43.794Z,14.66
2023-01-08T01:35:54.797Z,14.66
2023-01-08T01:36:06.733Z,14.67
2023-01-08T01:36:17.737Z,14.66
2023-01-08T01:36:28.712Z,14.65
2023-01-08T01:36:39.780Z,14.65
2023-01-08T01:36:51.752Z,14.66
2023-01-08T01:37:03.743Z,14.65
2023-01-08T01:37:14.729Z,14.66
2023-01-08T01:37:25.720Z,14.66
2023-01-08T01:37:36.727Z,14.64
2023-01-08T01:37:47.805Z,14.66
2023-01-08T01:37:59.751Z,14.65
2023-01-08T01:38:10.735Z,14.66
2023-01-08T01:38:21.764Z,14.66
2023-01-08T01:38:32.736Z,14.67
2023-01-08T01:38:43.762Z,14.66
2023-01-08T01:38:54.749Z,14.66
2023-01-08T01:39:05.737Z,14.66
2023-01-08T01:39:16.792Z,14.66
2023-01-08T01:39:28.750Z,14.65
2023-01-08T01:39:39.741Z,14.66
2023-01-08T01:39:50.748Z,14.65
2023-01-08T01:40:01.787Z,14.64
2023-01-08T01:40:12.739Z,14.65
2023-01-08T01:40:23.748Z,14.65
2023-01-08T01:40:34.767Z,14.65
2023-01-08T01:40:45.724Z,14.66
2023-01-08T01:40:56.713Z,14.66
2023-01-08T01:41:07.792Z,14.65
2023-01-08T01:41:18.865Z,14.66
2023-01-08T01:41:29.756Z,14.65
2023-01-08T01:41:40.763Z,14.65
2023-01-08T01:41:51.738Z,14.66
2023-01-08T01:42:02.728Z,14.67
2023-01-08T01:42:13.731Z,14.67
2023-01-08T01:42:24.728Z,14.66
2023-01-08T01:42:35.733Z,14.65
2023-01-08T01:42:46.813Z,14.66
2023-01-08T01:42:58.768Z,14.64
2023-01-08T01:43:10.726Z,14.66
2023-01-08T01:43:21.714Z,14.65
2023-01-08T01:43:32.798Z,14.66
2023-01-08T01:43:44.762Z,14.65
2023-01-08T01:43:56.731Z,14.65
2023-01-08T01:44:07.707Z,14.65
2023-01-08T01:44:18.809Z,14.64
2023-01-08T01:44:30.746Z,14.65
2023-01-08T01:44:41.747Z,14.65
2023-01-08T01:44:52.751Z,14.65
2023-01-08T01:45:03.714Z,14.65
2023-01-08T01:45:14.737Z,14.65
2023-01-08T01:45:25.768Z,14.63
2023-01-08T01:45:36.799Z,14.64
2023-01-08T01:45:48.797Z,14.63
2023-01-08T01:46:00.804Z,14.64
2023-01-08T01:46:12.776Z,14.65
2023-01-08T01:46:24.771Z,14.64
2023-01-08T01:46:35.775Z,14.65
2023-01-08T01:46:46.741Z,14.65
2023-01-08T01:46:57.745Z,14.65
2023-01-08T01:47:08.705Z,14.64
2023-01-08T01:47:19.800Z,14.64
2023-01-08T01:47:31.748Z,14.65
2023-01-08T01:47:43.743Z,14.64
2023-01-08T01:47:54.739Z,14.65
2023-01-08T01:48:05.741Z,14.65
2023-01-08T01:48:16.746Z,14.64
2023-01-08T01:48:27.740Z,14.64
2023-01-08T01:48:38.738Z,14.65
2023-01-08T01:50:39.807Z,14.38
2023-01-08T01:50:51.808Z,14.58
2023-01-08T01:51:02.788Z,14.61
2023-01-08T01:51:13.802Z,14.60
2023-01-08T01:51:24.805Z,14.62
2023-01-08T01:51:35.821Z,14.62
2023-01-08T01:51:47.806Z,14.63
2023-01-08T01:51:58.780Z,14.64
2023-01-08T01:52:09.792Z,14.63
2023-01-08T01:52:20.790Z,14.63
2023-01-08T01:52:31.780Z,14.64
2023-01-08T01:52:42.858Z,14.63
2023-01-08T01:52:54.820Z,14.63
2023-01-08T01:53:06.795Z,14.64
2023-01-08T01:53:18.817Z,14.66
2023-01-08T01:53:29.820Z,14.64
2023-01-08T01:53:40.803Z,14.64
2023-01-08T01:53:51.796Z,14.64
2023-01-08T01:54:02.806Z,14.66
2023-01-08T01:54:13.792Z,14.65
2023-01-08T01:54:24.796Z,14.65
2023-01-08T01:54:35.776Z,14.64
2023-01-08T01:54:46.826Z,14.66
2023-01-08T01:54:57.821Z,14.66
2023-01-08T01:55:08.796Z,14.67
2023-01-08T01:55:19.793Z,14.66
2023-01-08T01:55:30.773Z,14.66
2023-01-08T01:55:41.846Z,14.66
2023-01-08T01:55:53.802Z,14.65
2023-01-08T01:56:04.783Z,14.66
2023-01-08T01:56:15.777Z,14.67
2023-01-08T01:56:26.848Z,14.66
2023-01-08T01:56:37.810Z,14.66
2023-01-08T01:56:48.803Z,14.66
2023-01-08T01:57:00.780Z,14.66
2023-01-08T01:57:11.783Z,14.67
2023-01-08T01:57:22.848Z,14.66
2023-01-08T01:57:34.819Z,14.67
2023-01-08T01:57:46.787Z,14.65
2023-01-08T01:57:57.815Z,14.66
2023-01-08T01:58:08.805Z,14.67
2023-01-08T01:58:19.795Z,14.66
2023-01-08T01:58:30.794Z,14.66
2023-01-08T01:58:41.799Z,14.66
2023-01-08T01:58:52.776Z,14.67
2023-01-08T01:59:03.761Z,14.67
2023-01-08T01:59:14.875Z,14.65
2023-01-08T01:59:26.805Z,14.67
2023-01-08T01:59:37.788Z,14.66
2023-01-08T01:59:48.784Z,14.66
2023-01-08T01:59:59.795Z,14.67
2023-01-08T02:00:10.797Z,14.67
2023-01-08T02:00:21.831Z,14.67
2023-01-08T02:00:33.808Z,14.67
2023-01-08T02:00:44.808Z,14.67
2023-01-08T02:00:55.877Z,14.66
2023-01-08T02:01:06.898Z,14.66
2023-01-08T02:01:17.922Z,14.67
2023-01-08T02:01:29.936Z,14.67
2023-01-08T02:01:41.943Z,14.68
2023-01-08T02:01:53.983Z,14.67
2023-01-08T02:02:05.976Z,14.67
2023-01-08T02:02:17.903Z,14.67
2023-01-08T02:02:28.815Z,14.66
2023-01-08T02:02:39.812Z,14.66
2023-01-08T02:02:50.797Z,14.66
2023-01-08T02:03:01.802Z,14.65
2023-01-08T02:03:12.796Z,14.66
2023-01-08T02:03:23.790Z,14.68
2023-01-08T02:03:34.777Z,14.67
2023-01-08T02:03:45.910Z,14.67
2023-01-08T02:03:56.885Z,14.67
2023-01-08T02:04:07.898Z,14.67
2023-01-08T02:04:18.919Z,14.66
2023-01-08T02:04:30.768Z,14.67
2023-01-08T02:04:41.839Z,14.67
2023-01-08T02:04:53.800Z,14.66
2023-01-08T02:05:04.781Z,14.66
2023-01-08T02:05:15.790Z,14.66
2023-01-08T02:05:26.780Z,14.67
2023-01-08T02:05:37.785Z,14.66
2023-01-08T02:05:48.758Z,14.66
2023-01-08T02:05:59.786Z,14.67
2023-01-08T02:06:10.772Z,14.67
2023-01-08T02:06:21.756Z,14.67
2023-01-08T02:06:32.827Z,14.67
2023-01-08T02:06:44.803Z,14.67
2023-01-08T02:06:56.782Z,14.67
2023-01-08T02:07:07.823Z,14.67
2023-01-08T02:07:18.795Z,14.67
2023-01-08T02:07:29.764Z,14.67
2023-01-08T02:07:40.777Z,14.69
2023-01-08T02:07:51.788Z,14.68
2023-01-08T02:08:02.762Z,14.68
2023-01-08T02:08:13.860Z,14.69
2023-01-08T02:08:25.841Z,14.67
2023-01-08T02:08:37.787Z,14.67
2023-01-08T02:08:48.780Z,14.67
2023-01-08T02:08:59.814Z,14.65
2023-01-08T02:09:10.807Z,14.66
2023-01-08T02:09:21.794Z,14.66
2023-01-08T02:09:32.824Z,14.68
2023-01-08T02:09:44.839Z,14.67
2023-01-08T02:09:55.792Z,14.67
2023-01-08T02:10:06.802Z,14.67
2023-01-08T02:10:17.788Z,14.67
2023-01-08T02:10:28.847Z,14.67
2023-01-08T02:10:40.833Z,14.68
2023-01-08T02:10:52.792Z,14.68
2023-01-08T02:11:03.759Z,14.68
2023-01-08T02:11:14.833Z,14.68
2023-01-08T02:11:25.827Z,14.67
2023-01-08T02:11:37.914Z,14.66
2023-01-08T02:11:48.801Z,14.66
2023-01-08T02:11:59.776Z,14.68
2023-01-08T02:12:10.797Z,14.67
2023-01-08T02:12:22.766Z,14.66
2023-01-08T02:12:33.774Z,14.67
2023-01-08T02:12:44.802Z,14.67
2023-01-08T02:12:56.737Z,14.66
2023-01-08T02:13:07.752Z,14.67
2023-01-08T02:13:18.739Z,14.67
2023-01-08T02:13:29.717Z,14.66
2023-01-08T02:13:40.728Z,14.66
2023-01-08T02:13:51.824Z,14.66
2023-01-08T02:14:03.774Z,14.66
2023-01-08T02:14:15.755Z,14.67
2023-01-08T02:14:26.750Z,14.66
2023-01-08T02:14:37.777Z,14.66
2023-01-08T02:14:48.754Z,14.66
2023-01-08T02:14:59.747Z,14.65
2023-01-08T02:15:10.828Z,14.66
2023-01-08T02:15:22.812Z,14.65
2023-01-08T02:15:34.736Z,14.66
2023-01-08T02:15:45.747Z,14.66
2023-01-08T02:15:56.756Z,14.65
2023-01-08T02:16:07.744Z,14.66
2023-01-08T02:16:18.800Z,14.66
2023-01-08T02:16:30.760Z,14.65
2023-01-08T02:16:41.803Z,14.66
2023-01-08T02:16:52.864Z,14.65
2023-01-08T02:17:04.922Z,14.65
2023-01-08T02:17:16.801Z,14.67
2023-01-08T02:17:27.760Z,14.67
2023-01-08T02:17:38.774Z,14.66
2023-01-08T02:17:49.753Z,14.67
2023-01-08T02:18:01.755Z,14.67
2023-01-08T02:18:12.754Z,14.65
2023-01-08T02:18:23.770Z,14.65
2023-01-08T02:18:34.759Z,14.65
2023-01-08T02:18:45.755Z,14.65
2023-01-08T02:18:56.741Z,14.66
2023-01-08T02:19:07.743Z,14.67
2023-01-08T02:19:18.711Z,14.66
2023-01-08T02:19:29.803Z,14.67
2023-01-08T02:19:41.777Z,14.65
2023-01-08T02:19:52.761Z,14.67
2023-01-08T02:20:03.742Z,14.68
2023-01-08T02:20:14.711Z,14.66
2023-01-08T02:20:25.776Z,14.66
2023-01-08T02:20:37.744Z,14.66
2023-01-08T02:20:48.815Z,14.67
2023-01-08T02:21:00.781Z,14.66
2023-01-08T02:21:12.741Z,14.65
2023-01-08T02:21:23.732Z,14.66
2023-01-08T02:21:34.840Z,14.66
2023-01-08T02:21:46.773Z,14.66
2023-01-08T02:21:58.729Z,14.67
2023-01-08T02:22:09.846Z,14.65
2023-01-08T02:22:21.807Z,14.67
2023-01-08T02:22:33.780Z,14.66
2023-01-08T02:22:44.776Z,14.67
2023-01-08T02:22:56.759Z,14.66
2023-01-08T02:23:07.770Z,14.67
2023-01-08T02:23:18.790Z,14.66
2023-01-08T02:23:29.744Z,14.66
2023-01-08T02:23:40.804Z,14.66
2023-01-08T02:23:52.758Z,14.67
2023-01-08T02:24:03.736Z,14.67
2023-01-08T02:24:14.720Z,14.67
2023-01-08T02:24:25.710Z,14.68
2023-01-08T02:24:36.736Z,14.68
2023-01-08T02:24:47.823Z,14.67
2023-01-08T02:24:59.758Z,14.67
2023-01-08T02:25:10.765Z,14.68
2023-01-08T02:25:21.771Z,14.67
2023-01-08T02:25:32.741Z,14.68
2023-01-08T02:25:43.814Z,14.67
2023-01-08T02:25:55.771Z,14.68
2023-01-08T02:26:06.758Z,14.69
2023-01-08T02:26:18.742Z,14.69